createdAt,value
2023-01-28T00:01:43.353Z,29.27
2023-01-28T00:04:14.563Z,28.77
2023-01-28T00:06:45.268Z,25.90
2023-01-28T00:09:15.596Z,29.45
2023-01-28T00:11:45.900Z,27.57
2023-01-28T00:14:18.904Z,26.53
2023-01-28T00:16:49.430Z,28.07
2023-01-28T00:19:19.781Z,30.50
2023-01-28T00:21:50.063Z,27.60
2023-01-28T00:24:20.440Z,28.97
2023-01-28T00:26:51.674Z,26.00
2023-01-28T00:31:54.804Z,25.60
2023-01-28T00:34:25.422Z,32.20
2023-01-28T00:36:57.851Z,29.90
2023-01-28T00:39:28.964Z,28.57
2023-01-28T00:41:59.384Z,28.25
2023-01-28T00:44:32.304Z,24.20
2023-01-28T00:47:02.721Z,28.17
2023-01-28T00:49:33.102Z,31.80
2023-01-28T00:52:05.917Z,23.53
2023-01-28T00:54:36.650Z,18.93
2023-01-28T00:57:08.111Z,15.90
2023-01-28T00:59:41.122Z,11.27
2023-01-28T01:02:15.096Z,11.80
2023-01-28T01:04:55.143Z,14.00
2023-01-28T01:07:32.277Z,11.47
2023-01-28T01:10:03.250Z,14.57
2023-01-28T01:12:34.437Z,13.85
2023-01-28T01:15:10.636Z,11.27
2023-01-28T01:17:41.350Z,13.73
2023-01-28T01:20:19.016Z,13.65
2023-01-28T01:22:49.488Z,14.77
2023-01-28T01:25:21.540Z,14.02
2023-01-28T01:27:53.094Z,14.77
2023-01-28T01:30:26.101Z,16.10
2023-01-28T01:32:56.520Z,17.07
2023-01-28T01:35:27.246Z,15.53
2023-01-28T01:37:57.641Z,18.38
2023-01-28T01:40:29.691Z,18.33
2023-01-28T01:43:00.044Z,19.27
2023-01-28T01:45:37.762Z,16.52
2023-01-28T01:48:18.702Z,19.57
2023-01-28T01:50:58.166Z,16.60
2023-01-28T01:53:30.017Z,17.07
2023-01-28T01:56:07.400Z,15.93
2023-01-28T01:58:42.370Z,17.47
2023-01-28T02:01:16.911Z,18.40
2023-01-28T02:03:56.591Z,18.90
2023-01-28T02:06:27.791Z,18.33
2023-01-28T02:08:59.122Z,18.83
2023-01-28T02:14:07.947Z,15.80
2023-01-28T02:16:41.166Z,20.17
2023-01-28T02:19:13.480Z,21.67
2023-01-28T02:22:10.948Z,15.60
2023-01-28T02:25:22.124Z,17.33
2023-01-28T02:28:22.780Z,19.25
2023-01-28T02:30:59.400Z,16.77
2023-01-28T02:33:38.686Z,18.03
2023-01-28T02:36:20.735Z,18.07
2023-01-28T02:38:54.111Z,18.30
2023-01-28T02:41:31.674Z,21.20
2023-01-28T02:44:06.207Z,19.67
2023-01-28T02:46:52.005Z,18.20
2023-01-28T02:49:30.642Z,17.97
2023-01-28T02:52:48.837Z,15.33
2023-01-28T02:55:29.585Z,16.60
2023-01-28T02:58:11.736Z,14.52
2023-01-28T03:00:54.512Z,18.75
2023-01-28T03:03:31.346Z,14.20
2023-01-28T03:06:09.662Z,13.93
2023-01-28T03:08:59.533Z,14.80
2023-01-28T03:11:45.774Z,33.50
2023-01-28T03:14:34.242Z,17.47
2023-01-28T03:17:21.461Z,15.57
2023-01-28T03:20:04.532Z,14.10
2023-01-28T03:22:50.327Z,16.23
2023-01-28T03:25:36.731Z,14.13
2023-01-28T03:28:26.828Z,14.17
2023-01-28T03:31:17.999Z,15.90
2023-01-28T03:34:10.175Z,32.70
2023-01-28T03:36:53.538Z,22.37
2023-01-28T03:39:49.779Z,19.87
2023-01-28T03:42:21.049Z,17.47
2023-01-28T03:45:18.196Z,19.63
2023-01-28T03:47:50.111Z,19.93
2023-01-28T03:50:24.304Z,16.50
2023-01-28T03:53:16.833Z,16.87
2023-01-28T03:55:53.541Z,12.83
2023-01-28T03:58:27.369Z,12.50
2023-01-28T04:01:00.257Z,16.27
2023-01-28T04:03:30.537Z,13.03
2023-01-28T04:06:08.675Z,13.17
2023-01-28T04:08:59.746Z,13.03
2023-01-28T04:11:44.095Z,15.80
2023-01-28T04:14:18.425Z,12.00
2023-01-28T04:16:55.051Z,23.20
2023-01-28T04:19:28.310Z,14.00
2023-01-28T04:22:05.288Z,16.10
2023-01-28T04:24:36.526Z,12.07
2023-01-28T04:27:07.023Z,14.57
2023-01-28T04:29:37.419Z,12.52
2023-01-28T04:32:26.247Z,11.77
2023-01-28T04:35:11.721Z,12.93
2023-01-28T04:37:56.375Z,13.03
2023-01-28T04:40:53.579Z,10.80
2023-01-28T04:43:32.707Z,10.90
2023-01-28T04:46:23.313Z,9.37
2023-01-28T04:49:04.335Z,11.27
2023-01-28T04:51:50.469Z,12.60
2023-01-28T04:54:42.216Z,8.67
2023-01-28T04:57:13.062Z,11.97
2023-01-28T04:59:43.428Z,13.30
2023-01-28T05:02:13.822Z,13.30
2023-01-28T05:04:45.858Z,9.13
2023-01-28T05:07:28.674Z,14.77
2023-01-28T05:10:01.638Z,9.70
2023-01-28T05:12:34.327Z,11.30
2023-01-28T05:15:10.605Z,8.47
2023-01-28T05:17:41.553Z,11.63
2023-01-28T05:20:20.074Z,11.30
2023-01-28T05:22:52.461Z,9.20
2023-01-28T05:25:28.194Z,10.60
2023-01-28T05:27:58.513Z,11.77
2023-01-28T05:30:29.526Z,9.55
2023-01-28T05:33:00.547Z,9.48
2023-01-28T05:35:30.957Z,9.40
2023-01-28T05:38:01.282Z,9.00
2023-01-28T05:40:34.331Z,11.37
2023-01-28T05:43:04.915Z,11.37
2023-01-28T05:45:42.404Z,10.47
2023-01-28T05:48:20.187Z,7.77
2023-01-28T05:51:19.624Z,12.57
2023-01-28T05:53:57.336Z,7.80
2023-01-28T05:56:30.367Z,7.80
2023-01-28T05:59:00.652Z,8.07
2023-01-28T06:01:30.993Z,19.30
2023-01-28T06:04:02.646Z,18.50
2023-01-28T06:11:38.363Z,11.73
2023-01-28T06:14:09.252Z,8.33
2023-01-28T06:16:54.931Z,7.63
2023-01-28T06:19:30.311Z,11.07
2023-01-28T06:22:00.663Z,14.83
2023-01-28T06:24:31.114Z,13.93
2023-01-28T06:27:04.059Z,8.50
2023-01-28T06:29:34.461Z,9.73
2023-01-28T06:32:08.352Z,12.50
2023-01-28T06:34:39.026Z,9.07
2023-01-28T06:37:09.373Z,10.95
2023-01-28T06:39:39.738Z,11.13
2023-01-28T06:42:12.768Z,7.97
2023-01-28T06:44:43.091Z,11.43
2023-01-28T06:47:15.051Z,9.90
2023-01-28T06:49:45.351Z,10.27
2023-01-28T06:52:15.746Z,8.33
2023-01-28T06:54:46.096Z,8.70
2023-01-28T06:57:19.223Z,14.63
2023-01-28T06:59:49.531Z,9.83
2023-01-28T07:02:19.838Z,7.90
2023-01-28T07:04:50.131Z,6.83
2023-01-28T07:07:20.798Z,11.70
2023-01-28T07:09:51.228Z,8.35
2023-01-28T07:12:24.220Z,9.53
2023-01-28T07:14:54.581Z,6.87
2023-01-28T07:17:24.947Z,9.23
2023-01-28T07:19:55.841Z,8.47
2023-01-28T07:22:26.277Z,10.80
2023-01-28T07:24:56.629Z,9.17
2023-01-28T07:27:32.275Z,8.37
2023-01-28T07:30:02.785Z,10.00
2023-01-28T07:32:34.349Z,10.75
2023-01-28T07:35:04.632Z,7.87
2023-01-28T07:37:35.006Z,7.40
2023-01-28T07:40:05.929Z,7.50
2023-01-28T07:42:38.893Z,8.25
2023-01-28T07:45:11.662Z,8.33
2023-01-28T07:47:42.003Z,8.20
2023-01-28T07:50:16.197Z,8.60
2023-01-28T07:52:47.192Z,9.27
2023-01-28T07:55:18.223Z,5.97
2023-01-28T07:57:56.013Z,9.73
2023-01-28T08:00:28.618Z,9.67
2023-01-28T08:03:00.331Z,11.30
2023-01-28T08:05:41.855Z,7.73
2023-01-28T08:08:12.854Z,11.97
2023-01-28T08:10:49.903Z,7.57
2023-01-28T08:13:23.337Z,8.73
2023-01-28T08:15:58.252Z,7.00
2023-01-28T08:18:28.572Z,9.63
2023-01-28T08:20:59.329Z,9.20
2023-01-28T08:23:31.197Z,5.80
2023-01-28T08:26:02.289Z,9.47
2023-01-28T08:28:35.385Z,5.15
2023-01-28T08:31:06.067Z,9.03
2023-01-28T08:33:38.298Z,5.20
2023-01-28T08:36:10.365Z,7.70
2023-01-28T08:38:40.679Z,4.77
2023-01-28T08:41:10.958Z,7.13
2023-01-28T08:43:43.912Z,5.80
2023-01-28T08:46:14.280Z,6.03
2023-01-28T08:48:44.705Z,5.67
2023-01-28T08:51:14.963Z,7.23
2023-01-28T08:53:45.261Z,7.47
2023-01-28T08:56:16.648Z,11.63
2023-01-28T08:58:49.616Z,11.43
2023-01-28T09:01:20.007Z,7.60
2023-01-28T09:03:50.445Z,7.47
2023-01-28T09:06:20.728Z,6.57
2023-01-28T09:08:51.021Z,7.07
2023-01-28T09:11:21.374Z,6.53
2023-01-28T09:13:54.299Z,11.50
2023-01-28T09:16:24.594Z,7.43
2023-01-28T09:18:55.357Z,7.27
2023-01-28T09:21:25.762Z,7.53
2023-01-28T09:23:57.039Z,8.23
2023-01-28T09:29:00.047Z,6.80
2023-01-28T09:31:30.502Z,8.37
2023-01-28T09:34:00.855Z,5.87
2023-01-28T09:36:31.180Z,6.53
2023-01-28T09:39:01.855Z,6.07
2023-01-28T09:41:45.963Z,6.68
2023-01-28T09:44:36.217Z,7.47
2023-01-28T09:47:12.619Z,9.10
2023-01-28T09:49:50.590Z,7.90
2023-01-28T09:52:25.458Z,9.87
2023-01-28T09:55:01.866Z,8.53
2023-01-28T09:57:40.937Z,7.37
2023-01-28T10:00:21.690Z,6.83
2023-01-28T10:03:10.907Z,7.55
2023-01-28T10:05:55.096Z,9.10
2023-01-28T10:08:45.022Z,9.30
2023-01-28T10:11:28.688Z,6.67
2023-01-28T10:14:09.448Z,8.87
2023-01-28T10:16:50.179Z,7.28
2023-01-28T10:19:27.584Z,8.32
2023-01-28T10:22:03.396Z,6.53
2023-01-28T10:24:37.682Z,8.57
2023-01-28T10:27:18.745Z,8.77
2023-01-28T10:29:52.021Z,9.20
2023-01-28T10:32:36.967Z,5.70
2023-01-28T10:35:08.211Z,5.93
2023-01-28T10:40:18.267Z,5.87
2023-01-28T10:42:49.256Z,8.07
2023-01-28T10:45:25.214Z,4.90
2023-01-28T10:48:04.217Z,4.03
2023-01-28T10:50:35.478Z,6.23
2023-01-28T10:55:52.263Z,5.63
2023-01-28T10:58:26.794Z,5.20
2023-01-28T11:01:00.847Z,4.53
2023-01-28T11:03:35.364Z,7.13
2023-01-28T11:06:06.858Z,6.20
2023-01-28T11:08:47.480Z,5.20
2023-01-28T11:11:18.292Z,6.55
2023-01-28T11:13:58.707Z,6.93
2023-01-28T11:16:29.779Z,4.80
2023-01-28T11:19:08.144Z,4.63
2023-01-28T11:21:39.142Z,4.40
2023-01-28T11:24:20.004Z,7.13
2023-01-28T11:26:55.626Z,5.35
2023-01-28T11:29:31.193Z,4.97
2023-01-28T11:32:03.395Z,6.20
2023-01-28T11:34:38.358Z,5.43
2023-01-28T11:37:18.746Z,5.10
2023-01-28T11:39:49.140Z,7.13
2023-01-28T11:42:23.145Z,4.73
2023-01-28T11:44:53.775Z,7.37
2023-01-28T11:47:38.363Z,9.00
2023-01-28T11:50:28.509Z,7.10
2023-01-28T11:53:22.324Z,8.20
2023-01-28T11:56:08.619Z,9.30
2023-01-28T11:58:51.737Z,7.63
2023-01-28T12:01:33.626Z,7.03
2023-01-28T12:04:29.140Z,6.63
2023-01-28T12:07:23.616Z,5.83
2023-01-28T12:10:00.260Z,9.80
2023-01-28T12:12:51.838Z,14.93
2023-01-28T12:16:15.018Z,7.63
2023-01-28T12:19:09.628Z,8.87
2023-01-28T12:22:09.656Z,6.03
2023-01-28T12:24:58.364Z,6.57
2023-01-28T12:27:46.974Z,8.20
2023-01-28T12:30:31.606Z,7.20
2023-01-28T12:33:22.866Z,7.30
2023-01-28T12:36:07.134Z,7.47
2023-01-28T12:38:54.946Z,6.70
2023-01-28T12:41:31.476Z,8.30
2023-01-28T12:44:06.873Z,6.97
2023-01-28T12:46:45.964Z,11.40
2023-01-28T12:49:24.305Z,8.27
2023-01-28T12:52:06.959Z,8.57
2023-01-28T12:54:56.877Z,9.77
2023-01-28T12:57:30.881Z,5.73
2023-01-28T13:00:25.333Z,5.70
2023-01-28T13:03:10.319Z,8.80
2023-01-28T13:05:46.852Z,8.37
2023-01-28T13:08:23.789Z,6.30
2023-01-28T13:10:59.084Z,5.20
2023-01-28T13:13:35.191Z,6.77
2023-01-28T13:16:08.021Z,5.47
2023-01-28T13:18:48.212Z,8.53
2023-01-28T13:21:40.177Z,8.60
2023-01-28T13:24:27.192Z,6.07
2023-01-28T13:27:01.742Z,6.57
2023-01-28T13:29:35.897Z,7.07
2023-01-28T13:32:31.915Z,7.63
2023-01-28T13:35:06.695Z,6.37
2023-01-28T13:37:41.881Z,6.00
2023-01-28T13:40:27.663Z,8.03
2023-01-28T13:43:08.403Z,8.30
2023-01-28T13:45:38.822Z,7.72
2023-01-28T13:48:26.823Z,7.18
2023-01-28T13:50:57.742Z,7.57
2023-01-28T13:53:43.359Z,10.15
2023-01-28T13:56:24.701Z,6.37
2023-01-28T13:59:27.845Z,10.07
2023-01-28T14:02:29.619Z,7.17
2023-01-28T14:05:36.479Z,8.00
2023-01-28T14:09:04.585Z,6.90
2023-01-28T14:12:14.321Z,8.37
2023-01-28T14:15:12.437Z,6.20
2023-01-28T14:17:48.506Z,6.47
2023-01-28T14:20:26.445Z,7.43
2023-01-28T14:23:04.720Z,7.23
2023-01-28T14:25:52.414Z,5.67
2023-01-28T14:28:30.377Z,7.27
2023-01-28T14:31:12.241Z,7.47
2023-01-28T14:33:44.110Z,9.43
2023-01-28T14:36:17.967Z,7.80
2023-01-28T14:38:50.135Z,7.57
2023-01-28T14:41:28.290Z,7.60
2023-01-28T14:44:00.296Z,9.40
2023-01-28T14:46:49.128Z,6.57
2023-01-28T14:49:33.920Z,6.13
2023-01-28T14:52:24.389Z,8.83
2023-01-28T14:55:06.295Z,8.20
2023-01-28T14:57:53.545Z,8.23
2023-01-28T15:00:27.565Z,8.30
2023-01-28T15:03:01.876Z,8.53
2023-01-28T15:05:33.407Z,8.27
2023-01-28T15:08:03.707Z,9.60
2023-01-28T15:10:38.311Z,7.33
2023-01-28T15:13:11.715Z,11.07
2023-01-28T15:15:44.308Z,8.40
2023-01-28T15:18:23.319Z,8.67
2023-01-28T15:20:57.213Z,12.90
2023-01-28T15:23:32.181Z,10.60
2023-01-28T15:26:03.224Z,10.67
2023-01-28T15:28:37.453Z,8.57
2023-01-28T15:31:08.442Z,10.20
2023-01-28T15:33:41.527Z,10.32
2023-01-28T15:36:13.396Z,12.50
2023-01-28T15:38:43.711Z,11.53
2023-01-28T15:41:15.453Z,12.40
2023-01-28T15:43:52.335Z,14.00
2023-01-28T15:46:23.583Z,10.33
2023-01-28T15:51:35.019Z,10.57
2023-01-28T15:54:10.997Z,10.33
2023-01-28T15:56:41.343Z,10.67
2023-01-28T15:59:22.594Z,10.53
2023-01-28T16:01:53.146Z,12.05
2023-01-28T16:04:30.485Z,9.93
2023-01-28T16:07:07.583Z,12.07
2023-01-28T16:09:39.256Z,12.33
2023-01-28T16:12:13.187Z,9.27
2023-01-28T16:14:47.478Z,7.63
2023-01-28T16:17:22.105Z,7.90
2023-01-28T16:20:01.849Z,8.33
2023-01-28T16:22:38.443Z,11.27
2023-01-28T16:25:31.124Z,9.37
2023-01-28T16:28:03.514Z,13.10
2023-01-28T16:30:33.966Z,8.07
2023-01-28T16:33:04.460Z,8.17
2023-01-28T16:36:01.313Z,6.20
2023-01-28T16:38:27.721Z,7.40
2023-01-28T16:40:59.271Z,10.30
2023-01-28T16:43:29.714Z,6.93
2023-01-28T16:46:00.122Z,7.67
2023-01-28T16:48:30.650Z,9.07
2023-01-28T16:51:03.654Z,8.32
2023-01-28T16:53:36.977Z,8.13
2023-01-28T16:56:19.488Z,7.27
2023-01-28T16:59:00.126Z,8.07
2023-01-28T17:01:30.534Z,12.90
2023-01-28T17:04:00.925Z,11.03
2023-01-28T17:06:33.949Z,10.33
2023-01-28T17:09:04.215Z,7.57
2023-01-28T17:11:35.084Z,8.43
2023-01-28T17:14:05.832Z,8.10
2023-01-28T17:16:36.508Z,10.57
2023-01-28T17:19:09.922Z,8.88
2023-01-28T17:21:42.794Z,7.30
2023-01-28T17:24:13.312Z,6.07
2023-01-28T17:26:46.550Z,6.60
2023-01-28T17:29:16.831Z,8.43
2023-01-28T17:31:47.224Z,8.27
2023-01-28T17:34:17.677Z,8.13
2023-01-28T17:36:50.549Z,7.63
2023-01-28T17:39:20.851Z,10.87
2023-01-28T17:41:52.203Z,7.83
2023-01-28T17:46:53.093Z,10.43
2023-01-28T17:49:23.426Z,9.43
2023-01-28T17:51:56.283Z,7.00
2023-01-28T17:54:27.510Z,7.40
2023-01-28T17:56:58.544Z,8.33
2023-01-28T17:59:28.989Z,8.43
2023-01-28T18:01:59.315Z,10.73
2023-01-28T18:04:29.728Z,9.60
2023-01-28T18:07:02.659Z,9.50
2023-01-28T18:09:33.046Z,8.50
2023-01-28T18:12:03.792Z,9.37
2023-01-28T18:14:34.383Z,8.48
2023-01-28T18:17:05.100Z,10.07
2023-01-28T18:19:35.867Z,9.57
2023-01-28T18:22:08.940Z,8.85
2023-01-28T18:24:39.273Z,8.83
2023-01-28T18:27:09.607Z,8.60
2023-01-28T18:29:39.898Z,10.17
2023-01-28T18:32:10.298Z,10.50
2023-01-28T18:34:40.774Z,8.30
2023-01-28T18:37:13.813Z,8.85
2023-01-28T18:39:44.611Z,10.00
2023-01-28T18:42:15.144Z,10.98
2023-01-28T18:44:45.656Z,11.80
2023-01-28T18:47:16.078Z,7.50
2023-01-28T18:49:46.432Z,11.40
2023-01-28T18:52:19.401Z,11.00
2023-01-28T18:54:49.823Z,9.10
2023-01-28T18:57:20.225Z,9.93
2023-01-28T18:59:51.040Z,10.57
2023-01-28T19:02:21.418Z,12.05
2023-01-28T19:04:51.976Z,10.33
2023-01-28T19:07:25.108Z,13.07
2023-01-28T19:09:55.442Z,12.43
2023-01-28T19:12:25.837Z,13.13
2023-01-28T19:14:57.233Z,12.50
2023-01-28T19:17:27.845Z,11.37
2023-01-28T19:19:58.271Z,9.65
2023-01-28T19:22:31.214Z,10.50
2023-01-28T19:25:01.530Z,9.67
2023-01-28T19:27:31.902Z,12.93
2023-01-28T19:30:02.200Z,9.93
2023-01-28T19:32:32.678Z,10.90
2023-01-28T19:35:03.113Z,12.55
2023-01-28T19:37:36.681Z,10.57
2023-01-28T19:40:08.210Z,10.70
2023-01-28T19:42:38.480Z,12.37
2023-01-28T19:45:10.544Z,11.53
2023-01-28T19:47:40.870Z,12.20
2023-01-28T19:50:13.238Z,11.30
2023-01-28T19:52:46.263Z,8.57
2023-01-28T19:55:16.951Z,10.60
2023-01-28T19:57:47.567Z,7.93
2023-01-28T20:00:18.771Z,8.83
2023-01-28T20:05:23.709Z,9.83
2023-01-28T20:07:56.662Z,12.60
2023-01-28T20:10:26.926Z,8.53
2023-01-28T20:12:57.290Z,8.40
2023-01-28T20:15:27.694Z,11.50
2023-01-28T20:17:58.049Z,12.97
2023-01-28T20:20:28.363Z,14.23
2023-01-28T20:23:05.694Z,11.03
2023-01-28T20:25:36.551Z,12.70
2023-01-28T20:28:07.366Z,11.38
2023-01-28T20:30:37.920Z,12.57
2023-01-28T20:33:08.446Z,12.65
2023-01-28T20:35:38.958Z,13.00
2023-01-28T20:38:12.803Z,12.55
2023-01-28T20:40:44.076Z,13.23
2023-01-28T20:45:44.592Z,10.37
2023-01-28T20:48:14.899Z,14.63
2023-01-28T20:50:45.275Z,11.40
2023-01-28T20:53:18.268Z,10.63
2023-01-28T20:55:59.112Z,9.97
2023-01-28T20:58:29.518Z,12.98
2023-01-28T21:00:59.944Z,16.57
2023-01-28T21:03:30.365Z,13.10
2023-01-28T21:06:00.804Z,12.23
2023-01-28T21:08:33.992Z,12.32
2023-01-28T21:11:05.651Z,10.60
2023-01-28T21:13:36.040Z,15.97
2023-01-28T21:16:07.501Z,10.80
2023-01-28T21:18:37.873Z,12.00
2023-01-28T21:21:11.788Z,12.27
2023-01-28T21:23:44.735Z,9.70
2023-01-28T21:26:15.565Z,10.37
2023-01-28T21:28:46.170Z,10.32
2023-01-28T21:31:20.335Z,13.65
2023-01-28T21:33:52.640Z,36.50
2023-01-28T21:36:23.275Z,11.43
2023-01-28T21:38:58.607Z,10.75
2023-01-28T21:41:29.611Z,10.97
2023-01-28T21:44:01.214Z,9.57
2023-01-28T21:46:34.758Z,12.43
2023-01-28T21:49:07.874Z,11.80
2023-01-28T21:51:39.836Z,11.80
2023-01-28T21:54:17.057Z,13.23
2023-01-28T21:56:48.323Z,14.13
2023-01-28T22:02:05.635Z,11.43
2023-01-28T22:04:38.525Z,14.30
2023-01-28T22:07:12.391Z,12.60
2023-01-28T22:09:45.324Z,13.93
2023-01-28T22:12:16.681Z,12.83
2023-01-28T22:14:48.411Z,10.23
2023-01-28T22:17:19.578Z,11.90
2023-01-28T22:19:50.733Z,12.20
2023-01-28T22:22:21.438Z,12.30
2023-01-28T22:24:54.771Z,11.02
2023-01-28T22:27:27.163Z,11.53
2023-01-28T22:29:58.820Z,9.70
2023-01-28T22:32:29.391Z,10.43
2023-01-28T22:35:02.039Z,7.38
2023-01-28T22:37:32.460Z,8.47
2023-01-28T22:40:05.425Z,10.37
2023-01-28T22:42:35.683Z,9.40
2023-01-28T22:45:06.810Z,10.47
2023-01-28T22:47:37.173Z,10.18
2023-01-28T22:50:08.819Z,12.07
2023-01-28T22:52:39.248Z,11.73
2023-01-28T22:55:13.650Z,12.43
2023-01-28T22:57:43.945Z,12.20
2023-01-28T23:00:19.785Z,9.40
2023-01-28T23:02:50.162Z,8.60
2023-01-28T23:05:21.072Z,10.93
2023-01-28T23:07:51.698Z,12.05
2023-01-28T23:10:24.764Z,9.75
2023-01-28T23:12:56.386Z,11.90
2023-01-28T23:15:41.347Z,7.80
2023-01-28T23:18:33.455Z,11.63
2023-01-28T23:21:16.093Z,8.37
2023-01-28T23:23:58.774Z,9.60
2023-01-28T23:26:32.523Z,11.00
2023-01-28T23:29:02.972Z,9.63
2023-01-28T23:31:33.338Z,10.13
2023-01-28T23:34:03.789Z,14.30
2023-01-28T23:36:34.334Z,11.87
2023-01-28T23:39:04.726Z,11.25
2023-01-28T23:41:37.658Z,12.37
2023-01-28T23:44:08.519Z,10.10
2023-01-28T23:46:40.136Z,8.50
2023-01-28T23:49:11.199Z,13.77
2023-01-28T23:51:41.571Z,9.82
2023-01-28T23:54:11.953Z,10.27
2023-01-28T23:56:44.887Z,10.37
2023-01-28T23:59:15.228Z,10.77
